Time;durP1;ratioP1;P1;durP2;ratioP2;P2;SDS_P1;SDS_P2;PMS_P1;PMS_P2;Temp;Humidity;BMP_temperature;BMP_pressure;BME280_temperature;BME280_humidity;BME280_pressure;Samples;Min_cycle;Max_cycle;Signal;HPM_P1;HPM_P2
2022/06/10 00:00:27;;;;;;;3.33;1.33;;;18.70;67.80;;;;;;5076275;28;20032;-78
2022/06/10 00:02:53;;;;;;;3.08;1.40;;;18.70;67.90;;;;;;5070631;28;20069;-78
2022/06/10 00:05:23;;;;;;;4.80;1.40;;;18.70;68.20;;;;;;5094079;28;20476;-78
2022/06/10 00:07:51;;;;;;;4.80;1.83;;;18.70;67.90;;;;;;5085389;28;20029;-77
2022/06/10 00:10:19;;;;;;;3.97;1.40;;;18.80;68.10;;;;;;5044857;28;20036;-78
2022/06/10 00:12:46;;;;;;;2.60;1.20;;;18.80;68.40;;;;;;5055732;28;20021;-78
2022/06/10 00:15:15;;;;;;;1.45;1.10;;;18.80;68.00;;;;;;5055842;28;20407;-78
2022/06/10 00:17:41;;;;;;;4.47;1.23;;;18.80;68.30;;;;;;5077089;28;20023;-78
2022/06/10 00:20:09;;;;;;;4.10;1.40;;;18.80;68.10;;;;;;5093546;28;20032;-77
2022/06/10 00:22:35;;;;;;;2.30;1.08;;;18.80;67.90;;;;;;5091539;28;20020;-78
2022/06/10 00:25:02;;;;;;;6.07;1.67;;;18.80;68.00;;;;;;5082702;28;20054;-77
2022/06/10 00:27:27;;;;;;;1.65;0.90;;;18.80;67.60;;;;;;5092355;28;20096;-78
2022/06/10 00:29:55;;;;;;;8.65;1.23;;;18.80;67.90;;;;;;5093911;28;20035;-77
2022/06/10 00:32:23;;;;;;;3.47;1.20;;;18.80;68.00;;;;;;5092063;28;20032;-78
2022/06/10 00:34:49;;;;;;;3.70;1.35;;;18.80;67.80;;;;;;5075944;28;20028;-78
2022/06/10 00:37:15;;;;;;;2.20;1.02;;;18.80;67.30;;;;;;5073872;28;20358;-78
2022/06/10 00:39:41;;;;;;;2.25;1.08;;;18.80;67.00;;;;;;5042239;28;20033;-78
2022/06/10 00:42:07;;;;;;;5.57;1.10;;;18.80;67.10;;;;;;5051918;28;20021;-77
2022/06/10 00:44:37;;;;;;;2.30;1.05;;;18.70;67.10;;;;;;5035567;28;20063;-78
2022/06/10 00:47:22;;;;;;;2.55;1.00;;;18.70;67.00;;;;;;5052918;28;20032;-78
2022/06/10 00:49:57;;;;;;;3.95;1.15;;;18.70;67.30;;;;;;5035379;28;20059;-78
2022/06/10 00:52:33;;;;;;;2.47;1.10;;;18.70;67.50;;;;;;5064539;28;20134;-78
2022/06/10 00:55:02;;;;;;;2.10;1.02;;;18.70;67.40;;;;;;5093064;28;20048;-77
2022/06/10 00:57:34;;;;;;;3.15;1.42;;;18.70;67.50;;;;;;5076109;28;20021;-77
2022/06/10 01:00:08;;;;;;;5.82;1.25;;;18.60;67.30;;;;;;5034901;28;20171;-77
2022/06/10 01:02:35;;;;;;;2.00;1.25;;;18.60;67.20;;;;;;5052837;28;20029;-78
2022/06/10 01:05:05;;;;;;;2.05;1.05;;;18.60;67.20;;;;;;5052937;28;20100;-78
2022/06/10 01:07:35;;;;;;;6.35;1.60;;;18.50;67.20;;;;;;5056009;28;20036;-78
2022/06/10 01:10:07;;;;;;;4.07;1.40;;;18.50;67.20;;;;;;5093210;28;20035;-77
2022/06/10 01:12:53;;;;;;;3.90;1.48;;;18.50;67.40;;;;;;5075099;28;20387;-78
2022/06/10 01:15:27;;;;;;;2.53;1.20;;;18.50;67.70;;;;;;5093284;28;20024;-78
2022/06/10 01:18:02;;;;;;;3.38;1.50;;;18.50;67.70;;;;;;5092121;28;20373;-77
2022/06/10 01:20:56;;;;;;;3.47;1.40;;;18.50;67.70;;;;;;5072564;28;20044;-78
2022/06/10 01:23:34;;;;;;;2.55;1.17;;;18.40;67.20;;;;;;5080224;28;20033;-78
2022/06/10 01:26:30;;;;;;;4.22;1.95;;;18.40;67.80;;;;;;5056284;28;20020;-77
2022/06/10 01:29:38;;;;;;;2.85;1.63;;;18.40;67.60;;;;;;5054796;28;20029;-78
2022/06/10 01:32:17;;;;;;;2.45;1.15;;;18.40;67.60;;;;;;5043652;28;20043;-79
2022/06/10 01:35:03;;;;;;;2.08;1.35;;;18.40;67.40;;;;;;5072752;28;20067;-78
2022/06/10 01:37:38;;;;;;;7.47;1.52;;;18.30;67.60;;;;;;5031952;28;20523;-77
2022/06/10 01:40:35;;;;;;;5.32;1.17;;;18.30;67.70;;;;;;5071331;28;20392;-77
2022/06/10 01:43:38;;;;;;;2.47;1.40;;;18.30;68.00;;;;;;5072757;28;20017;-78
2022/06/10 01:46:20;;;;;;;2.92;1.70;;;18.30;67.40;;;;;;5085627;28;20035;-77
2022/06/10 01:48:58;;;;;;;3.00;1.38;;;18.30;67.70;;;;;;5096751;28;20028;-78
2022/06/10 01:52:00;;;;;;;4.32;1.70;;;18.30;67.80;;;;;;5096732;28;20032;-78
2022/06/10 01:54:40;;;;;;;5.28;1.73;;;18.30;67.70;;;;;;5067246;28;20067;-77
2022/06/10 01:57:11;;;;;;;3.25;1.77;;;18.20;67.50;;;;;;5056069;28;20033;-78
2022/06/10 01:59:46;;;;;;;4.07;1.67;;;18.20;67.80;;;;;;5030341;28;20428;-78
2022/06/10 02:02:22;;;;;;;4.68;1.95;;;18.20;67.80;;;;;;5036066;28;20022;-78
2022/06/10 02:04:57;;;;;;;4.45;1.83;;;18.20;67.80;;;;;;5018316;28;20063;-78
2022/06/10 02:07:34;;;;;;;4.10;1.58;;;18.20;67.70;;;;;;5024306;28;20112;-78
2022/06/10 02:10:13;;;;;;;2.72;1.58;;;18.20;67.80;;;;;;5055103;28;20039;-77
2022/06/10 02:12:51;;;;;;;2.65;1.52;;;18.20;67.90;;;;;;5049830;28;20495;-78
2022/06/10 02:15:29;;;;;;;4.03;1.90;;;18.20;67.70;;;;;;5075731;28;20023;-78
2022/06/10 02:18:06;;;;;;;3.53;2.00;;;18.20;67.70;;;;;;5076060;28;20376;-79
2022/06/10 02:20:35;;;;;;;5.85;2.03;;;18.20;67.60;;;;;;5057882;28;20067;-78
2022/06/10 02:23:05;;;;;;;3.95;1.73;;;18.20;67.80;;;;;;5055675;28;20077;-77
2022/06/10 02:25:41;;;;;;;5.00;1.80;;;18.20;67.90;;;;;;5041463;28;20025;-78
2022/06/10 02:28:14;;;;;;;6.68;1.77;;;18.20;67.80;;;;;;5035536;28;20129;-79
2022/06/10 02:31:05;;;;;;;4.43;1.70;;;18.20;67.80;;;;;;5035715;28;20029;-78
2022/06/10 02:33:31;;;;;;;3.42;1.75;;;18.20;68.00;;;;;;5017877;28;20531;-78
2022/06/10 02:36:17;;;;;;;4.45;2.15;;;18.20;68.00;;;;;;5041341;28;20024;-79
2022/06/10 02:39:10;;;;;;;3.80;1.70;;;18.20;68.00;;;;;;5040222;28;20469;-79
2022/06/10 02:41:47;;;;;;;8.82;2.05;;;18.20;68.00;;;;;;5035171;28;20041;-78
2022/06/10 02:44:33;;;;;;;5.18;2.13;;;18.20;67.80;;;;;;5048626;28;20027;-79
2022/06/10 02:47:04;;;;;;;3.95;1.85;;;18.10;67.70;;;;;;5035866;28;20084;-79
2022/06/10 02:49:30;;;;;;;5.10;1.80;;;18.10;67.80;;;;;;5075306;28;20074;-79
2022/06/10 02:51:56;;;;;;;5.22;2.72;;;18.10;67.70;;;;;;5075296;28;20028;-79
2022/06/10 02:54:29;;;;;;;3.85;1.75;;;18.10;67.60;;;;;;5041168;28;20111;-81
2022/06/10 02:56:56;;;;;;;6.97;1.98;;;18.10;67.70;;;;;;5054630;28;20033;-79
2022/06/10 03:02:23;;;;;;;8.75;2.40;;;18.10;67.80;;;;;;5060389;28;20040;-80
2022/06/10 03:05:10;;;;;;;3.92;1.67;;;18.00;67.50;;;;;;5066130;28;20029;-79
2022/06/10 03:07:48;;;;;;;2.75;1.65;;;18.10;67.70;;;;;;5054818;28;20477;-79
2022/06/10 03:10:24;;;;;;;3.60;1.85;;;18.10;67.90;;;;;;5037098;28;20397;-79
2022/06/10 03:13:20;;;;;;;3.83;1.70;;;18.00;67.80;;;;;;5045361;28;20098;-80
2022/06/10 03:16:00;;;;;;;2.65;1.63;;;18.10;67.80;;;;;;5074846;28;20032;-79
2022/06/10 03:19:06;;;;;;;5.47;2.20;;;18.10;67.90;;;;;;5049999;28;20029;-80
2022/06/10 03:22:15;;;;;;;2.65;1.70;;;18.10;67.70;;;;;;5034479;28;20465;-79
2022/06/10 03:25:16;;;;;;;3.88;2.03;;;18.10;67.80;;;;;;5048796;28;20381;-80
2022/06/10 03:28:14;;;;;;;4.95;2.15;;;18.10;67.80;;;;;;5034777;28;20048;-79
2022/06/10 03:30:49;;;;;;;2.90;1.77;;;18.10;67.70;;;;;;5034353;28;20031;-80
2022/06/10 03:33:42;;;;;;;2.17;1.70;;;18.10;68.00;;;;;;5034625;28;20095;-80
2022/06/10 03:36:12;;;;;;;2.90;1.73;;;18.10;67.80;;;;;;5034563;28;20026;-79
2022/06/10 03:38:45;;;;;;;3.58;1.75;;;18.10;67.60;;;;;;5058018;28;20108;-80
2022/06/10 03:41:42;;;;;;;4.00;1.88;;;18.10;67.50;;;;;;5073861;28;20495;-78
2022/06/10 03:44:17;;;;;;;4.57;2.35;;;18.20;68.10;;;;;;4963014;28;20525;-79
2022/06/10 03:46:48;;;;;;;2.65;1.88;;;18.20;67.30;;;;;;4953855;29;20037;-79
2022/06/10 03:49:17;;;;;;;9.75;2.03;;;18.20;67.70;;;;;;4955650;28;20043;-80
2022/06/10 03:51:44;;;;;;;2.88;1.60;;;18.10;67.60;;;;;;4970269;28;20159;-79
2022/06/10 03:54:17;;;;;;;4.65;2.10;;;18.20;68.10;;;;;;4975967;28;20533;-79
2022/06/10 03:56:42;;;;;;;4.53;2.00;;;18.20;67.70;;;;;;4992362;28;20478;-80
2022/06/10 03:59:09;;;;;;;3.45;2.17;;;18.20;67.80;;;;;;4974666;28;20073;-79
2022/06/10 04:01:36;;;;;;;2.50;1.77;;;18.20;67.80;;;;;;4972449;28;20043;-79
2022/06/10 04:04:03;;;;;;;4.13;1.90;;;18.20;67.50;;;;;;4987959;28;20037;-79
2022/06/10 04:06:29;;;;;;;5.53;2.10;;;18.20;67.80;;;;;;4991505;28;20045;-80
2022/06/10 04:08:57;;;;;;;4.28;2.53;;;18.20;67.80;;;;;;4991993;28;20034;-79
2022/06/10 04:11:23;;;;;;;3.05;2.08;;;18.20;67.80;;;;;;4970581;28;20451;-79
2022/06/10 04:13:51;;;;;;;3.75;2.40;;;18.20;68.00;;;;;;4987318;28;20125;-79
2022/06/10 04:16:17;;;;;;;3.50;2.20;;;18.20;67.80;;;;;;4988169;28;20089;-80
2022/06/10 04:18:45;;;;;;;5.13;2.25;;;18.20;67.60;;;;;;4974144;28;20403;-80
2022/06/10 04:21:11;;;;;;;6.18;2.20;;;18.20;67.40;;;;;;5034545;28;20040;-79
2022/06/10 04:23:37;;;;;;;5.07;2.35;;;18.20;67.70;;;;;;5060340;28;20395;-80
2022/06/10 04:26:03;;;;;;;4.57;2.50;;;18.20;67.80;;;;;;5053448;28;20067;-80
2022/06/10 04:28:29;;;;;;;3.42;2.53;;;18.20;68.00;;;;;;5082296;28;20480;-80
2022/06/10 04:30:58;;;;;;;3.30;2.60;;;18.20;67.80;;;;;;5093889;28;20035;-80
2022/06/10 04:33:24;;;;;;;3.50;2.08;;;18.20;67.60;;;;;;5093367;28;20020;-80
2022/06/10 04:35:53;;;;;;;14.30;2.33;;;18.30;68.10;;;;;;5075347;28;20122;-80
2022/06/10 04:38:21;;;;;;;4.90;2.28;;;18.30;68.30;;;;;;5083795;28;20020;-80
2022/06/10 04:40:48;;;;;;;8.07;2.85;;;18.30;68.20;;;;;;5090106;28;20035;-80
2022/06/10 04:43:15;;;;;;;6.22;2.13;;;18.30;68.20;;;;;;5093391;28;20028;-80
2022/06/10 04:45:48;;;;;;;6.07;2.33;;;18.40;68.40;;;;;;5075138;28;20024;-80
2022/06/10 04:48:16;;;;;;;5.03;2.60;;;18.50;68.60;;;;;;5075268;28;20101;-80
2022/06/10 04:50:47;;;;;;;3.65;2.33;;;18.50;68.60;;;;;;5082555;28;20047;-81
2022/06/10 04:53:15;;;;;;;4.18;2.42;;;18.60;68.60;;;;;;5057650;28;20467;-80
2022/06/10 04:55:41;;;;;;;4.10;2.28;;;18.60;67.80;;;;;;5053825;28;20057;-81
2022/06/10 04:58:07;;;;;;;7.00;2.60;;;18.60;67.90;;;;;;5035239;28;20432;-80
2022/06/10 05:00:37;;;;;;;4.25;2.45;;;18.60;67.40;;;;;;5053001;28;20037;-81
2022/06/10 05:03:04;;;;;;;5.03;2.38;;;18.60;67.40;;;;;;5045621;28;20418;-81
2022/06/10 05:05:31;;;;;;;3.28;2.33;;;18.60;67.40;;;;;;5069994;28;20028;-79
2022/06/10 05:07:59;;;;;;;3.05;2.28;;;18.70;67.20;;;;;;5092981;28;20020;-81
2022/06/10 05:10:26;;;;;;;6.30;2.47;;;18.70;67.30;;;;;;5092957;28;20031;-81
2022/06/10 05:12:52;;;;;;;3.13;2.10;;;18.70;67.20;;;;;;5075046;28;20120;-81
2022/06/10 05:15:22;;;;;;;7.18;2.40;;;18.70;67.10;;;;;;5092796;28;20098;-81
2022/06/10 05:17:50;;;;;;;4.82;2.85;;;18.70;67.20;;;;;;5091417;28;20490;-81
2022/06/10 05:20:33;;;;;;;2.97;2.50;;;18.70;66.80;;;;;;5078781;28;20036;-81
2022/06/10 05:23:01;;;;;;;4.45;2.28;;;18.70;66.80;;;;;;5097124;28;20024;-81
2022/06/10 05:25:27;;;;;;;4.32;2.60;;;18.70;67.10;;;;;;5057387;28;20110;-81
2022/06/10 05:27:56;;;;;;;9.07;2.80;;;18.80;67.10;;;;;;5075045;28;20448;-80
2022/06/10 05:30:28;;;;;;;5.43;2.80;;;18.70;66.40;;;;;;5096041;28;20036;-82
2022/06/10 05:32:54;;;;;;;4.53;2.42;;;18.70;66.40;;;;;;5078956;28;20513;-81
2022/06/10 05:35:21;;;;;;;4.47;2.53;;;18.70;66.30;;;;;;5079011;28;20455;-81
2022/06/10 05:37:49;;;;;;;8.23;2.92;;;18.70;66.40;;;;;;5095269;28;20471;-82
2022/06/10 05:40:19;;;;;;;7.32;3.15;;;18.80;66.70;;;;;;5092949;28;20038;-82
2022/06/10 05:42:45;;;;;;;3.53;2.40;;;18.80;66.50;;;;;;5097125;28;20052;-81
2022/06/10 05:45:14;;;;;;;4.22;2.80;;;18.80;66.60;;;;;;5097224;28;20059;-81
2022/06/10 05:47:40;;;;;;;6.63;2.60;;;18.80;66.30;;;;;;5096181;28;20024;-82
2022/06/10 05:50:17;;;;;;;4.72;2.60;;;18.80;66.00;;;;;;5072951;28;20051;-82
2022/06/10 05:52:43;;;;;;;3.58;2.53;;;18.70;66.10;;;;;;5067466;28;20052;-83
2022/06/10 05:55:11;;;;;;;6.22;2.80;;;18.80;66.10;;;;;;5059852;28;20481;-82
2022/06/10 05:57:38;;;;;;;4.50;3.03;;;18.80;66.60;;;;;;5074590;28;20029;-82
2022/06/10 06:00:09;;;;;;;5.65;2.58;;;18.80;66.80;;;;;;5076775;28;20043;-82
2022/06/10 06:02:34;;;;;;;4.95;2.50;;;18.80;66.70;;;;;;5076088;28;20016;-82
2022/06/10 06:05:03;;;;;;;6.30;2.08;;;18.80;66.80;;;;;;5056527;28;20028;-83
2022/06/10 06:07:29;;;;;;;3.70;2.28;;;18.80;66.70;;;;;;5056453;28;20028;-83
2022/06/10 06:09:55;;;;;;;10.23;2.83;;;18.90;66.70;;;;;;5042150;28;20029;-83
2022/06/10 06:12:22;;;;;;;5.90;3.03;;;18.90;66.80;;;;;;5050454;28;20486;-81
2022/06/10 06:14:48;;;;;;;4.38;2.85;;;18.90;66.70;;;;;;5082307;28;20016;-82
2022/06/10 06:17:15;;;;;;;12.15;3.05;;;18.90;66.20;;;;;;5077271;28;20036;-83
2022/06/10 06:19:42;;;;;;;7.55;2.72;;;18.90;66.00;;;;;;5078566;28;20114;-84
2022/06/10 06:22:08;;;;;;;5.78;2.75;;;18.90;65.80;;;;;;5064494;28;20044;-84
2022/06/10 06:24:36;;;;;;;4.60;3.20;;;18.90;65.70;;;;;;5038578;28;20064;-82
2022/06/10 06:27:07;;;;;;;3.65;2.50;;;18.90;65.60;;;;;;5070856;28;20020;-83
2022/06/10 06:29:33;;;;;;;4.68;2.55;;;18.90;66.80;;;;;;5094747;28;20028;-84
2022/06/10 06:31:59;;;;;;;4.05;2.50;;;18.90;66.30;;;;;;5056788;28;20029;-83
2022/06/10 06:34:25;;;;;;;7.78;3.05;;;19.00;66.00;;;;;;5061162;28;20077;-84
2022/06/10 06:36:56;;;;;;;6.50;2.38;;;19.00;65.80;;;;;;5073545;28;20020;-84
2022/06/10 06:39:23;;;;;;;4.03;2.60;;;19.10;66.60;;;;;;5064893;28;20020;-84
2022/06/10 06:41:51;;;;;;;3.47;2.28;;;19.10;66.40;;;;;;5078068;28;20035;-84
2022/06/10 06:44:17;;;;;;;3.08;2.10;;;19.30;66.90;;;;;;5095901;28;20429;-84
2022/06/10 06:46:43;;;;;;;4.88;2.67;;;19.30;66.70;;;;;;5096301;28;20028;-84
2022/06/10 06:49:18;;;;;;;4.15;2.20;;;19.40;66.60;;;;;;5077138;28;20029;-84
2022/06/10 06:51:44;;;;;;;7.40;2.15;;;19.50;66.60;;;;;;5083536;28;20023;-84
2022/06/10 06:54:11;;;;;;;3.33;2.33;;;19.60;66.40;;;;;;5095682;28;20181;-82
2022/06/10 06:56:38;;;;;;;3.13;2.03;;;19.60;65.70;;;;;;5096044;28;20020;-84
2022/06/10 06:59:06;;;;;;;5.35;2.78;;;19.60;65.10;;;;;;5066561;28;20134;-84
2022/06/10 07:01:32;;;;;;;4.80;2.03;;;19.60;65.40;;;;;;5045692;28;20101;-85
2022/06/10 07:03:58;;;;;;;6.07;2.50;;;19.70;65.20;;;;;;5073654;28;20351;-85
2022/06/10 07:06:24;;;;;;;2.88;2.08;;;19.70;65.40;;;;;;5095932;28;20460;-84
2022/06/10 07:08:50;;;;;;;3.75;2.40;;;19.80;65.70;;;;;;5076602;28;20025;-85
2022/06/10 07:11:17;;;;;;;4.30;2.72;;;19.80;65.80;;;;;;5094640;28;20480;-85
2022/06/10 07:13:43;;;;;;;4.13;2.30;;;19.90;65.00;;;;;;5095934;28;20480;-87
2022/06/10 07:16:10;;;;;;;6.55;3.20;;;20.00;64.50;;;;;;5072668;28;20036;-86
2022/06/10 07:18:37;;;;;;;2.85;2.30;;;20.10;64.00;;;;;;5078130;28;20028;-85
2022/06/10 07:21:06;;;;;;;4.63;2.20;;;20.20;64.00;;;;;;5072330;28;20835;-82
2022/06/10 07:23:32;;;;;;;4.60;2.60;;;20.30;64.70;;;;;;5059201;28;20491;-88
2022/06/10 07:25:59;;;;;;;5.25;2.40;;;20.50;63.80;;;;;;5057884;28;20025;-88
2022/06/10 07:28:25;;;;;;;4.30;2.58;;;20.60;64.50;;;;;;5047758;28;20033;-87
2022/06/10 07:30:51;;;;;;;5.57;3.15;;;20.80;64.40;;;;;;5077950;28;20036;-88
2022/06/10 07:33:20;;;;;;;5.00;2.80;;;21.10;63.20;;;;;;5078055;28;20031;-86
2022/06/10 07:35:47;;;;;;;6.22;3.20;;;21.20;63.90;;;;;;5085485;28;20025;-80
2022/06/10 07:38:13;;;;;;;6.10;3.03;;;21.50;63.20;;;;;;5052132;28;20488;-78
2022/06/10 07:43:32;;;;;;;9.68;2.75;;;21.80;60.40;;;;;;5070419;28;20040;-77
2022/06/10 07:46:00;;;;;;;3.72;2.47;;;21.90;60.20;;;;;;5051829;28;20024;-77
2022/06/10 07:48:26;;;;;;;6.88;2.70;;;22.00;59.30;;;;;;5056111;28;20020;-76
2022/06/10 07:50:52;;;;;;;5.90;2.55;;;22.10;59.30;;;;;;5073067;28;20025;-77
2022/06/10 07:53:19;;;;;;;5.60;3.00;;;22.20;59.70;;;;;;5055667;28;20036;-77
2022/06/10 07:55:45;;;;;;;8.27;2.70;;;22.20;58.00;;;;;;5072259;28;20135;-77
2022/06/10 07:58:13;;;;;;;3.97;2.40;;;22.30;58.30;;;;;;5058462;28;20020;-78
2022/06/10 08:00:39;;;;;;;4.35;2.35;;;22.30;59.60;;;;;;5062557;28;20039;-76
2022/06/10 08:03:05;;;;;;;6.07;3.05;;;22.40;58.30;;;;;;5073247;28;20095;-76
2022/06/10 08:05:32;;;;;;;4.15;2.45;;;22.40;57.70;;;;;;5055205;28;20545;-77
2022/06/10 08:07:58;;;;;;;3.42;2.40;;;22.50;58.10;;;;;;5071135;28;20027;-76
2022/06/10 08:10:33;;;;;;;4.32;2.50;;;22.50;57.60;;;;;;5075741;28;20111;-76
2022/06/10 08:12:59;;;;;;;5.13;2.85;;;22.60;56.90;;;;;;5059042;28;20025;-76
2022/06/10 08:15:25;;;;;;;6.50;2.58;;;22.60;57.90;;;;;;5055700;28;20071;-76
2022/06/10 08:17:52;;;;;;;4.55;2.13;;;22.80;58.80;;;;;;5055744;28;20031;-76
2022/06/10 08:20:27;;;;;;;5.30;2.67;;;22.90;58.70;;;;;;5055357;28;20035;-76
2022/06/10 08:23:10;;;;;;;3.13;2.38;;;23.10;57.20;;;;;;5071024;28;20062;-76
2022/06/10 08:25:40;;;;;;;3.28;2.42;;;23.20;57.10;;;;;;5054576;28;20048;-76
2022/06/10 08:28:06;;;;;;;6.88;2.53;;;23.30;57.00;;;;;;5055441;28;20079;-76
2022/06/10 08:30:32;;;;;;;5.25;2.78;;;23.40;56.00;;;;;;5064791;28;20032;-76
2022/06/10 08:33:07;;;;;;;3.28;2.40;;;23.60;56.40;;;;;;5073139;28;20380;-76
2022/06/10 08:35:34;;;;;;;4.22;2.35;;;23.70;56.50;;;;;;5054493;28;20139;-77
2022/06/10 08:38:02;;;;;;;4.57;2.30;;;23.80;56.30;;;;;;5060734;28;20024;-74
2022/06/10 08:40:49;;;;;;;3.50;2.42;;;23.90;54.80;;;;;;5075307;28;20379;-73
2022/06/10 08:43:53;;;;;;;7.15;2.58;;;24.00;54.70;;;;;;5056346;28;20067;-74
2022/06/10 08:46:28;;;;;;;6.05;2.30;;;24.00;54.60;;;;;;5047970;28;20524;-76
2022/06/10 08:49:29;;;;;;;4.35;2.40;;;24.10;54.60;;;;;;5075405;28;20028;-76
2022/06/10 08:52:08;;;;;;;5.03;2.72;;;24.10;53.50;;;;;;5045205;28;20116;-76
2022/06/10 08:54:43;;;;;;;6.32;2.90;;;24.10;54.10;;;;;;5050942;28;20036;-77
2022/06/10 08:57:36;;;;;;;3.90;2.50;;;24.10;53.20;;;;;;5049177;28;20128;-76
2022/06/10 09:00:15;;;;;;;2.95;2.42;;;24.20;53.90;;;;;;5039514;28;20040;-75
2022/06/10 09:03:28;;;;;;;4.20;2.42;;;24.20;53.50;;;;;;5071792;28;20126;-75
2022/06/10 09:05:59;;;;;;;7.40;3.13;;;24.20;54.50;;;;;;5061082;28;20028;-76
2022/06/10 09:08:34;;;;;;;8.20;2.95;;;24.30;53.90;;;;;;5047369;28;20720;-75
2022/06/10 09:11:26;;;;;;;6.00;2.47;;;24.40;53.80;;;;;;5040903;28;20033;-75
2022/06/10 09:14:09;;;;;;;5.40;2.47;;;24.50;52.90;;;;;;5039576;28;20027;-75
2022/06/10 09:16:59;;;;;;;5.38;2.50;;;24.60;54.00;;;;;;5069304;28;20093;-75
2022/06/10 09:20:12;;;;;;;6.55;2.88;;;24.80;53.70;;;;;;5072300;28;20490;-75
2022/06/10 09:22:51;;;;;;;8.80;2.67;;;24.90;53.30;;;;;;4975112;28;20034;-75
2022/06/10 09:25:35;;;;;;;3.63;2.10;;;24.90;52.40;;;;;;4975228;28;20050;-74
2022/06/10 09:28:01;;;;;;;4.43;2.72;;;25.00;51.80;;;;;;5051757;28;20119;-76
2022/06/10 09:30:48;;;;;;;4.97;2.75;;;25.00;52.20;;;;;;5055815;28;20040;-72
2022/06/10 09:33:56;;;;;;;4.15;2.70;;;25.00;51.20;;;;;;5052671;28;20453;-75
2022/06/10 09:36:39;;;;;;;9.13;3.30;;;25.10;52.20;;;;;;5048037;28;20033;-75
2022/06/10 09:42:41;;;;;;;4.47;2.88;;;25.20;50.70;;;;;;5066556;28;20511;-74
2022/06/10 09:45:45;;;;;;;4.85;2.67;;;25.40;51.50;;;;;;5039322;28;20028;-74
2022/06/10 09:48:41;;;;;;;5.22;2.65;;;25.50;51.60;;;;;;5076144;28;20484;-73
2022/06/10 09:51:44;;;;;;;5.97;3.00;;;25.50;50.60;;;;;;5039154;28;20029;-74
2022/06/10 09:54:29;;;;;;;5.85;3.08;;;25.50;50.00;;;;;;5048201;28;20049;-73
2022/06/10 09:57:41;;;;;;;6.00;2.83;;;25.50;51.10;;;;;;5070835;28;20031;-73
2022/06/10 10:00:18;;;;;;;3.47;2.55;;;25.50;50.20;;;;;;5046982;28;20538;-75
2022/06/10 10:03:10;;;;;;;8.57;2.50;;;25.40;50.50;;;;;;5050028;28;20024;-74
2022/06/10 10:05:55;;;;;;;5.03;2.60;;;25.40;50.20;;;;;;5043657;28;20048;-74
2022/06/10 10:08:30;;;;;;;7.15;2.80;;;25.30;50.70;;;;;;5059936;28;20044;-74
2022/06/10 10:11:07;;;;;;;7.95;3.10;;;25.40;49.50;;;;;;5057035;28;20454;-74
2022/06/10 10:13:42;;;;;;;5.45;2.72;;;25.40;50.60;;;;;;5058066;28;20108;-74
2022/06/10 10:16:20;;;;;;;5.80;2.55;;;25.40;50.20;;;;;;5057466;28;20413;-74
2022/06/10 10:19:15;;;;;;;6.55;2.50;;;25.50;50.40;;;;;;5055108;28;20025;-74
2022/06/10 10:22:16;;;;;;;4.63;2.83;;;25.50;50.10;;;;;;5073297;28;20044;-74
2022/06/10 10:24:44;;;;;;;5.20;3.13;;;25.60;50.20;;;;;;5071703;28;20027;-74
2022/06/10 10:27:21;;;;;;;3.92;2.53;;;25.70;50.10;;;;;;5059417;28;20033;-74
2022/06/10 10:29:52;;;;;;;6.07;2.92;;;25.70;50.40;;;;;;5059993;28;20065;-75
2022/06/10 10:32:22;;;;;;;4.88;2.55;;;25.70;49.90;;;;;;5073194;28;20028;-74
2022/06/10 10:34:55;;;;;;;5.45;3.25;;;25.60;48.90;;;;;;5058691;28;20033;-75
2022/06/10 10:37:35;;;;;;;4.05;2.63;;;25.50;50.40;;;;;;5073932;28;20024;-74
2022/06/10 10:40:19;;;;;;;6.22;3.05;;;25.30;50.30;;;;;;5073472;28;20036;-75
2022/06/10 10:42:46;;;;;;;;;;;25.20;50.50;;;;;;5062747;28;20441;-75
2022/06/10 10:45:31;;;;;;;2.78;2.22;;;25.00;51.20;;;;;;5057002;28;20352;-75
2022/06/10 10:48:01;;;;;;;4.70;2.65;;;24.90;52.80;;;;;;5073934;28;20025;-75
2022/06/10 10:50:32;;;;;;;4.20;2.70;;;24.80;53.80;;;;;;5073851;28;20082;-76
2022/06/10 10:52:59;;;;;;;6.53;2.60;;;24.80;54.60;;;;;;5056972;28;20020;-76
2022/06/10 10:55:35;;;;;;;4.20;2.53;;;24.90;55.00;;;;;;5040542;28;20119;-76
2022/06/10 10:58:07;;;;;;;4.13;2.50;;;25.00;54.20;;;;;;5073769;28;20037;-75
2022/06/10 11:00:42;;;;;;;3.45;2.40;;;25.20;54.00;;;;;;5056242;28;20496;-75
2022/06/10 11:03:28;;;;;;;4.88;3.17;;;25.40;53.80;;;;;;5025074;28;20039;-75
2022/06/10 11:05:55;;;;;;;3.83;2.78;;;25.70;53.70;;;;;;5056680;28;20024;-75
2022/06/10 11:08:28;;;;;;;4.05;2.90;;;25.80;52.50;;;;;;5073449;28;20031;-75
2022/06/10 11:11:34;;;;;;;4.40;2.90;;;26.00;54.30;;;;;;5056325;28;20025;-75
2022/06/10 11:14:31;;;;;;;9.00;2.85;;;26.30;52.60;;;;;;5047953;28;20072;-75
2022/06/10 11:17:15;;;;;;;3.45;2.35;;;26.50;53.10;;;;;;5064282;28;20021;-74
2022/06/10 11:19:45;;;;;;;;;;;26.70;52.40;;;;;;5073346;28;20021;-75
2022/06/10 11:22:35;;;;;;;6.45;2.38;;;26.80;52.00;;;;;;5054973;28;19931;-75
2022/06/10 11:25:02;;;;;;;3.40;2.35;;;26.70;50.80;;;;;;5056062;28;20562;-74
2022/06/10 11:27:38;;;;;;;4.95;2.80;;;26.80;49.90;;;;;;5056197;28;20024;-74
2022/06/10 11:30:07;;;;;;;6.85;2.95;;;26.70;50.10;;;;;;5055944;28;20036;-75
2022/06/10 11:32:54;;;;;;;4.00;2.40;;;26.70;48.70;;;;;;5055968;28;20032;-73
2022/06/10 11:36:01;;;;;;;6.20;3.08;;;26.70;49.90;;;;;;5042210;28;20028;-73
2022/06/10 11:38:32;;;;;;;3.42;2.70;;;26.70;50.00;;;;;;5056256;28;20107;-73
2022/06/10 11:41:13;;;;;;;15.90;2.72;;;26.80;51.40;;;;;;5055995;28;20033;-73
2022/06/10 11:43:46;;;;;;;5.57;2.65;;;27.00;52.00;;;;;;5072861;28;20028;-73
2022/06/10 11:47:03;;;;;;;7.38;3.10;;;27.20;49.90;;;;;;5074027;28;20021;-74
2022/06/10 11:49:47;;;;;;;2.92;2.20;;;27.40;48.90;;;;;;5052070;28;20035;-73
2022/06/10 11:52:25;;;;;;;4.85;2.80;;;27.50;48.00;;;;;;5067233;28;20021;-73
2022/06/10 11:55:28;;;;;;;5.28;2.70;;;27.60;48.70;;;;;;5044812;28;20053;-74
2022/06/10 12:00:55;;;;;;;3.60;2.38;;;27.90;47.60;;;;;;5033676;28;20039;-73
2022/06/10 12:03:28;;;;;;;4.70;3.00;;;28.10;47.00;;;;;;5016053;28;20037;-75
2022/06/10 12:06:09;;;;;;;6.53;2.30;;;28.20;45.60;;;;;;5032771;28;20120;-75
2022/06/10 12:08:56;;;;;;;2.80;2.42;;;28.30;46.20;;;;;;5032475;28;20033;-73
2022/06/10 12:11:25;;;;;;;7.10;2.22;;;28.50;45.30;;;;;;5032497;28;20462;-75
2022/06/10 12:14:03;;;;;;;5.70;2.30;;;28.70;45.50;;;;;;5032491;28;20065;-75
2022/06/10 12:16:30;;;;;;;6.07;2.90;;;28.70;44.20;;;;;;5015839;28;20422;-73
2022/06/10 12:18:58;;;;;;;5.53;2.30;;;28.90;44.00;;;;;;5033498;28;20083;-73
2022/06/10 12:21:28;;;;;;;4.57;2.38;;;28.90;43.10;;;;;;5015954;28;20124;-75
2022/06/10 12:23:54;;;;;;;2.65;2.05;;;29.00;43.30;;;;;;5032300;28;20136;-73
2022/06/10 12:26:32;;;;;;;11.00;3.00;;;29.10;42.40;;;;;;5033718;28;20105;-73
2022/06/10 12:29:19;;;;;;;3.92;2.05;;;29.10;41.60;;;;;;5032496;28;20096;-73
2022/06/10 12:32:21;;;;;;;2.95;2.17;;;29.20;42.50;;;;;;5032262;28;20121;-73
2022/06/10 12:34:56;;;;;;;5.53;2.33;;;29.30;42.50;;;;;;5015618;28;20025;-73
2022/06/10 12:37:27;;;;;;;4.65;2.55;;;29.40;41.50;;;;;;5032330;28;20436;-73
2022/06/10 12:40:02;;;;;;;4.07;2.45;;;29.50;40.50;;;;;;5044806;28;20024;-74
2022/06/10 12:42:34;;;;;;;2.58;1.95;;;29.50;40.60;;;;;;5035422;28;20021;-74
2022/06/10 12:45:01;;;;;;;6.13;2.17;;;29.50;41.20;;;;;;5035380;28;20021;-74
2022/06/10 12:47:36;;;;;;;2.97;2.03;;;29.60;39.40;;;;;;5035202;28;20025;-73
2022/06/10 12:50:16;;;;;;;3.50;2.08;;;29.60;40.00;;;;;;5035348;28;20041;-74
2022/06/10 12:53:19;;;;;;;6.03;2.22;;;29.70;39.60;;;;;;5053409;28;20048;-74
2022/06/10 12:55:50;;;;;;;3.30;2.03;;;29.70;40.00;;;;;;5034859;28;20064;-74
2022/06/10 12:58:38;;;;;;;6.75;2.38;;;29.70;38.70;;;;;;5035302;28;20472;-73
2022/06/10 13:01:33;;;;;;;3.13;2.10;;;29.70;39.40;;;;;;5034909;28;20036;-74
2022/06/10 13:04:02;;;;;;;5.20;2.63;;;29.90;40.30;;;;;;5025819;28;20064;-74
2022/06/10 13:06:58;;;;;;;3.40;1.90;;;30.00;38.80;;;;;;5035183;28;20025;-74
2022/06/10 13:09:36;;;;;;;10.35;2.10;;;30.10;39.60;;;;;;5035291;28;20033;-74
2022/06/10 13:12:34;;;;;;;5.70;2.05;;;30.20;38.60;;;;;;5035409;28;20182;-74
2022/06/10 13:15:25;;;;;;;3.53;2.20;;;30.20;39.00;;;;;;5047994;28;20100;-74
2022/06/10 13:17:54;;;;;;;5.38;2.67;;;30.30;38.80;;;;;;5035140;28;20024;-74
2022/06/10 13:20:22;;;;;;;3.63;2.00;;;30.50;37.30;;;;;;5053013;28;20032;-74
2022/06/10 13:23:13;;;;;;;2.55;1.75;;;30.60;37.00;;;;;;5035133;28;20116;-74
2022/06/10 13:25:40;;;;;;;3.85;2.35;;;30.70;38.40;;;;;;5035041;28;20051;-74
2022/06/10 13:28:22;;;;;;;4.32;2.15;;;30.80;37.10;;;;;;5034894;28;20416;-74
2022/06/10 13:30:50;;;;;;;3.55;2.20;;;30.70;36.90;;;;;;5052747;28;20048;-74
2022/06/10 13:33:18;;;;;;;5.15;2.40;;;30.70;36.80;;;;;;5034742;28;20025;-74
2022/06/10 13:35:44;;;;;;;3.80;1.83;;;30.60;36.40;;;;;;5034755;28;20029;-74
2022/06/10 13:38:14;;;;;;;5.45;2.10;;;30.40;37.20;;;;;;5034657;28;20025;-74
2022/06/10 13:40:46;;;;;;;4.78;2.00;;;30.20;36.70;;;;;;5056060;28;20029;-74